sensor_id;sensor_type;location;lat;lon;timestamp;P1;durP1;ratioP1;P2;durP2;ratioP2
12476;SDS011;6303;51.504;6.300;2022-12-16T00:00:40;8.32;;;7.38;;
12476;SDS011;6303;51.504;6.300;2022-12-16T00:03:07;8.50;;;7.68;;
12476;SDS011;6303;51.504;6.300;2022-12-16T00:05:34;9.32;;;8.27;;
12476;SDS011;6303;51.504;6.300;2022-12-16T00:08:02;8.32;;;7.43;;
12476;SDS011;6303;51.504;6.300;2022-12-16T00:10:29;9.77;;;8.23;;
12476;SDS011;6303;51.504;6.300;2022-12-16T00:13:17;8.68;;;7.30;;
12476;SDS011;6303;51.504;6.300;2022-12-16T00:15:45;8.63;;;7.50;;
12476;SDS011;6303;51.504;6.300;2022-12-16T00:18:12;8.23;;;7.43;;
12476;SDS011;6303;51.504;6.300;2022-12-16T00:20:43;8.85;;;7.63;;
12476;SDS011;6303;51.504;6.300;2022-12-16T00:23:11;9.10;;;7.30;;
12476;SDS011;6303;51.504;6.300;2022-12-16T00:25:40;8.82;;;7.57;;
12476;SDS011;6303;51.504;6.300;2022-12-16T00:28:07;8.65;;;7.75;;
12476;SDS011;6303;51.504;6.300;2022-12-16T00:30:36;8.93;;;7.88;;
12476;SDS011;6303;51.504;6.300;2022-12-16T00:33:03;9.18;;;7.63;;
12476;SDS011;6303;51.504;6.300;2022-12-16T00:35:30;9.13;;;7.72;;
12476;SDS011;6303;51.504;6.300;2022-12-16T00:37:58;8.68;;;7.75;;
12476;SDS011;6303;51.504;6.300;2022-12-16T00:40:25;8.70;;;7.80;;
12476;SDS011;6303;51.504;6.300;2022-12-16T00:42:52;8.77;;;7.70;;
12476;SDS011;6303;51.504;6.300;2022-12-16T00:45:19;8.90;;;7.68;;
12476;SDS011;6303;51.504;6.300;2022-12-16T00:47:49;8.88;;;7.97;;
12476;SDS011;6303;51.504;6.300;2022-12-16T00:50:16;8.07;;;7.28;;
12476;SDS011;6303;51.504;6.300;2022-12-16T00:52:44;8.45;;;7.53;;
12476;SDS011;6303;51.504;6.300;2022-12-16T00:55:12;8.30;;;7.40;;
12476;SDS011;6303;51.504;6.300;2022-12-16T00:57:39;8.40;;;7.53;;
12476;SDS011;6303;51.504;6.300;2022-12-16T01:00:06;8.80;;;7.90;;
12476;SDS011;6303;51.504;6.300;2022-12-16T01:02:37;8.00;;;7.20;;
12476;SDS011;6303;51.504;6.300;2022-12-16T01:05:07;8.40;;;7.50;;
12476;SDS011;6303;51.504;6.300;2022-12-16T01:07:35;8.93;;;7.72;;
12476;SDS011;6303;51.504;6.300;2022-12-16T01:10:03;7.95;;;7.10;;
12476;SDS011;6303;51.504;6.300;2022-12-16T01:12:31;8.85;;;7.45;;
12476;SDS011;6303;51.504;6.300;2022-12-16T01:14:59;8.85;;;7.43;;
12476;SDS011;6303;51.504;6.300;2022-12-16T01:17:27;8.88;;;7.72;;
12476;SDS011;6303;51.504;6.300;2022-12-16T01:19:54;8.75;;;7.95;;
12476;SDS011;6303;51.504;6.300;2022-12-16T01:22:23;8.90;;;7.68;;
12476;SDS011;6303;51.504;6.300;2022-12-16T01:24:50;10.05;;;8.73;;
12476;SDS011;6303;51.504;6.300;2022-12-16T01:27:17;8.68;;;7.78;;
12476;SDS011;6303;51.504;6.300;2022-12-16T01:29:44;9.70;;;8.18;;
12476;SDS011;6303;51.504;6.300;2022-12-16T01:32:12;9.45;;;8.32;;
12476;SDS011;6303;51.504;6.300;2022-12-16T01:34:40;9.25;;;7.88;;
12476;SDS011;6303;51.504;6.300;2022-12-16T01:37:08;8.73;;;7.78;;
12476;SDS011;6303;51.504;6.300;2022-12-16T01:39:39;9.23;;;8.13;;
12476;SDS011;6303;51.504;6.300;2022-12-16T01:42:08;10.07;;;8.98;;
12476;SDS011;6303;51.504;6.300;2022-12-16T01:44:37;9.60;;;7.97;;
12476;SDS011;6303;51.504;6.300;2022-12-16T01:47:08;8.70;;;7.80;;
12476;SDS011;6303;51.504;6.300;2022-12-16T01:49:41;9.20;;;8.15;;
12476;SDS011;6303;51.504;6.300;2022-12-16T01:52:12;9.25;;;8.30;;
12476;SDS011;6303;51.504;6.300;2022-12-16T01:54:45;11.13;;;8.65;;
12476;SDS011;6303;51.504;6.300;2022-12-16T01:57:16;9.38;;;8.25;;
12476;SDS011;6303;51.504;6.300;2022-12-16T01:59:49;10.57;;;8.55;;
12476;SDS011;6303;51.504;6.300;2022-12-16T02:02:18;9.82;;;8.30;;
12476;SDS011;6303;51.504;6.300;2022-12-16T02:04:46;9.63;;;8.43;;
12476;SDS011;6303;51.504;6.300;2022-12-16T02:07:27;9.02;;;8.10;;
12476;SDS011;6303;51.504;6.300;2022-12-16T02:09:56;10.27;;;8.50;;
12476;SDS011;6303;51.504;6.300;2022-12-16T02:12:25;9.73;;;8.73;;
12476;SDS011;6303;51.504;6.300;2022-12-16T02:15:07;9.23;;;8.23;;
12476;SDS011;6303;51.504;6.300;2022-12-16T02:17:46;11.45;;;8.77;;
12476;SDS011;6303;51.504;6.300;2022-12-16T02:20:37;9.52;;;8.60;;
12476;SDS011;6303;51.504;6.300;2022-12-16T02:23:35;9.77;;;8.57;;
12476;SDS011;6303;51.504;6.300;2022-12-16T02:26:38;10.32;;;8.55;;
12476;SDS011;6303;51.504;6.300;2022-12-16T02:29:29;9.00;;;7.85;;
12476;SDS011;6303;51.504;6.300;2022-12-16T02:32:12;9.10;;;8.18;;
12476;SDS011;6303;51.504;6.300;2022-12-16T02:34:44;9.55;;;8.55;;
12476;SDS011;6303;51.504;6.300;2022-12-16T02:37:22;10.13;;;8.82;;
12476;SDS011;6303;51.504;6.300;2022-12-16T02:40:01;10.23;;;8.00;;
12476;SDS011;6303;51.504;6.300;2022-12-16T02:42:33;10.13;;;8.45;;
12476;SDS011;6303;51.504;6.300;2022-12-16T02:45:06;10.40;;;8.02;;
12476;SDS011;6303;51.504;6.300;2022-12-16T02:47:38;10.30;;;8.18;;
12476;SDS011;6303;51.504;6.300;2022-12-16T02:50:07;8.45;;;7.53;;
12476;SDS011;6303;51.504;6.300;2022-12-16T02:52:43;8.93;;;8.02;;
12476;SDS011;6303;51.504;6.300;2022-12-16T02:55:10;8.88;;;7.97;;
12476;SDS011;6303;51.504;6.300;2022-12-16T02:57:41;9.45;;;8.40;;
12476;SDS011;6303;51.504;6.300;2022-12-16T03:00:39;9.75;;;7.78;;
12476;SDS011;6303;51.504;6.300;2022-12-16T03:03:16;9.10;;;7.95;;
12476;SDS011;6303;51.504;6.300;2022-12-16T03:05:47;8.68;;;7.75;;
12476;SDS011;6303;51.504;6.300;2022-12-16T03:08:18;8.30;;;7.50;;
12476;SDS011;6303;51.504;6.300;2022-12-16T03:10:50;8.20;;;7.40;;
12476;SDS011;6303;51.504;6.300;2022-12-16T03:13:21;9.77;;;7.70;;
12476;SDS011;6303;51.504;6.300;2022-12-16T03:15:51;9.13;;;7.70;;
12476;SDS011;6303;51.504;6.300;2022-12-16T03:18:22;8.55;;;7.65;;
12476;SDS011;6303;51.504;6.300;2022-12-16T03:20:51;8.43;;;7.60;;
12476;SDS011;6303;51.504;6.300;2022-12-16T03:23:21;9.60;;;8.48;;
12476;SDS011;6303;51.504;6.300;2022-12-16T03:25:53;8.93;;;7.57;;
12476;SDS011;6303;51.504;6.300;2022-12-16T03:28:27;8.18;;;7.32;;
12476;SDS011;6303;51.504;6.300;2022-12-16T03:31:04;8.27;;;7.47;;
12476;SDS011;6303;51.504;6.300;2022-12-16T03:33:40;8.25;;;7.35;;
12476;SDS011;6303;51.504;6.300;2022-12-16T03:36:14;8.48;;;7.57;;
12476;SDS011;6303;51.504;6.300;2022-12-16T03:38:44;8.55;;;7.70;;
12476;SDS011;6303;51.504;6.300;2022-12-16T03:41:13;7.88;;;7.10;;
12476;SDS011;6303;51.504;6.300;2022-12-16T03:43:42;8.43;;;7.53;;
12476;SDS011;6303;51.504;6.300;2022-12-16T03:46:09;8.27;;;7.40;;
12476;SDS011;6303;51.504;6.300;2022-12-16T03:48:45;8.02;;;7.22;;
12476;SDS011;6303;51.504;6.300;2022-12-16T03:51:13;11.00;;;7.93;;
12476;SDS011;6303;51.504;6.300;2022-12-16T03:53:41;8.55;;;7.32;;
12476;SDS011;6303;51.504;6.300;2022-12-16T03:56:08;8.45;;;7.55;;
12476;SDS011;6303;51.504;6.300;2022-12-16T03:58:35;7.95;;;7.15;;
12476;SDS011;6303;51.504;6.300;2022-12-16T04:01:04;9.13;;;7.57;;
12476;SDS011;6303;51.504;6.300;2022-12-16T04:03:31;9.55;;;8.52;;
12476;SDS011;6303;51.504;6.300;2022-12-16T04:06:00;10.23;;;8.65;;
12476;SDS011;6303;51.504;6.300;2022-12-16T04:08:28;9.05;;;8.10;;
12476;SDS011;6303;51.504;6.300;2022-12-16T04:10:55;9.63;;;8.38;;
12476;SDS011;6303;51.504;6.300;2022-12-16T04:13:39;8.80;;;7.95;;
12476;SDS011;6303;51.504;6.300;2022-12-16T04:16:25;10.07;;;7.97;;
12476;SDS011;6303;51.504;6.300;2022-12-16T04:19:13;9.10;;;8.20;;
12476;SDS011;6303;51.504;6.300;2022-12-16T04:22:06;9.57;;;8.57;;
12476;SDS011;6303;51.504;6.300;2022-12-16T04:24:55;10.57;;;8.15;;
12476;SDS011;6303;51.504;6.300;2022-12-16T04:27:24;9.55;;;8.13;;
12476;SDS011;6303;51.504;6.300;2022-12-16T04:29:52;8.95;;;7.82;;
12476;SDS011;6303;51.504;6.300;2022-12-16T04:32:36;8.50;;;7.68;;
12476;SDS011;6303;51.504;6.300;2022-12-16T04:35:36;9.75;;;8.27;;
12476;SDS011;6303;51.504;6.300;2022-12-16T04:38:22;9.18;;;7.57;;
12476;SDS011;6303;51.504;6.300;2022-12-16T04:41:06;9.00;;;7.80;;
12476;SDS011;6303;51.504;6.300;2022-12-16T04:43:50;8.02;;;7.22;;
12476;SDS011;6303;51.504;6.300;2022-12-16T04:46:35;8.98;;;7.70;;
12476;SDS011;6303;51.504;6.300;2022-12-16T04:49:20;10.70;;;8.30;;
12476;SDS011;6303;51.504;6.300;2022-12-16T04:52:04;8.15;;;7.35;;
12476;SDS011;6303;51.504;6.300;2022-12-16T04:54:50;11.05;;;7.90;;
12476;SDS011;6303;51.504;6.300;2022-12-16T04:57:35;8.85;;;7.40;;
12476;SDS011;6303;51.504;6.300;2022-12-16T05:00:19;8.82;;;7.32;;
12476;SDS011;6303;51.504;6.300;2022-12-16T05:03:07;10.75;;;8.05;;
12476;SDS011;6303;51.504;6.300;2022-12-16T05:05:48;8.10;;;7.30;;
12476;SDS011;6303;51.504;6.300;2022-12-16T05:08:32;11.70;;;7.95;;
12476;SDS011;6303;51.504;6.300;2022-12-16T05:11:18;8.43;;;7.55;;
12476;SDS011;6303;51.504;6.300;2022-12-16T05:14:03;7.90;;;7.10;;
12476;SDS011;6303;51.504;6.300;2022-12-16T05:16:47;8.55;;;7.43;;
12476;SDS011;6303;51.504;6.300;2022-12-16T05:19:32;8.63;;;7.30;;
12476;SDS011;6303;51.504;6.300;2022-12-16T05:22:16;8.57;;;7.60;;
12476;SDS011;6303;51.504;6.300;2022-12-16T05:25:01;8.63;;;7.25;;
12476;SDS011;6303;51.504;6.300;2022-12-16T05:27:50;9.50;;;7.18;;
12476;SDS011;6303;51.504;6.300;2022-12-16T05:30:35;9.00;;;7.40;;
12476;SDS011;6303;51.504;6.300;2022-12-16T05:33:19;8.05;;;7.22;;
12476;SDS011;6303;51.504;6.300;2022-12-16T05:36:04;8.10;;;7.20;;
12476;SDS011;6303;51.504;6.300;2022-12-16T05:38:49;8.20;;;7.13;;
12476;SDS011;6303;51.504;6.300;2022-12-16T05:41:34;8.60;;;7.07;;
12476;SDS011;6303;51.504;6.300;2022-12-16T05:44:20;8.57;;;6.95;;
12476;SDS011;6303;51.504;6.300;2022-12-16T05:47:05;8.45;;;7.28;;
12476;SDS011;6303;51.504;6.300;2022-12-16T05:49:49;7.65;;;6.85;;
12476;SDS011;6303;51.504;6.300;2022-12-16T05:52:34;7.90;;;7.10;;
12476;SDS011;6303;51.504;6.300;2022-12-16T05:55:18;7.55;;;6.78;;
12476;SDS011;6303;51.504;6.300;2022-12-16T05:58:03;11.35;;;7.00;;
12476;SDS011;6303;51.504;6.300;2022-12-16T06:00:51;9.40;;;7.45;;
12476;SDS011;6303;51.504;6.300;2022-12-16T06:03:36;9.20;;;7.93;;
12476;SDS011;6303;51.504;6.300;2022-12-16T06:06:20;8.90;;;7.75;;
12476;SDS011;6303;51.504;6.300;2022-12-16T06:09:05;9.63;;;8.27;;
12476;SDS011;6303;51.504;6.300;2022-12-16T06:11:50;9.82;;;7.70;;
12476;SDS011;6303;51.504;6.300;2022-12-16T06:14:34;8.77;;;7.88;;
12476;SDS011;6303;51.504;6.300;2022-12-16T06:17:20;8.25;;;7.40;;
12476;SDS011;6303;51.504;6.300;2022-12-16T06:20:05;10.10;;;7.43;;
12476;SDS011;6303;51.504;6.300;2022-12-16T06:22:50;8.50;;;7.63;;
12476;SDS011;6303;51.504;6.300;2022-12-16T06:25:35;8.25;;;7.22;;
12476;SDS011;6303;51.504;6.300;2022-12-16T06:28:20;8.23;;;7.40;;
12476;SDS011;6303;51.504;6.300;2022-12-16T06:31:03;9.50;;;8.40;;
12476;SDS011;6303;51.504;6.300;2022-12-16T06:33:49;11.57;;;7.82;;
12476;SDS011;6303;51.504;6.300;2022-12-16T06:36:34;9.05;;;8.15;;
12476;SDS011;6303;51.504;6.300;2022-12-16T06:39:18;9.88;;;7.65;;
12476;SDS011;6303;51.504;6.300;2022-12-16T06:42:03;8.93;;;8.02;;
12476;SDS011;6303;51.504;6.300;2022-12-16T06:44:47;8.40;;;7.60;;
12476;SDS011;6303;51.504;6.300;2022-12-16T06:47:32;10.23;;;7.68;;
12476;SDS011;6303;51.504;6.300;2022-12-16T06:50:17;9.18;;;7.80;;
12476;SDS011;6303;51.504;6.300;2022-12-16T06:53:02;8.77;;;7.88;;
12476;SDS011;6303;51.504;6.300;2022-12-16T06:55:47;10.18;;;8.10;;
12476;SDS011;6303;51.504;6.300;2022-12-16T06:58:31;13.55;;;8.63;;
12476;SDS011;6303;51.504;6.300;2022-12-16T07:01:16;11.93;;;8.20;;
12476;SDS011;6303;51.504;6.300;2022-12-16T07:04:00;17.15;;;10.73;;
12476;SDS011;6303;51.504;6.300;2022-12-16T07:06:46;26.20;;;19.98;;
12476;SDS011;6303;51.504;6.300;2022-12-16T07:09:31;26.77;;;20.63;;
12476;SDS011;6303;51.504;6.300;2022-12-16T07:12:15;25.27;;;20.08;;
12476;SDS011;6303;51.504;6.300;2022-12-16T07:15:00;21.52;;;16.48;;
12476;SDS011;6303;51.504;6.300;2022-12-16T07:17:44;17.00;;;12.88;;
12476;SDS011;6303;51.504;6.300;2022-12-16T07:20:28;16.83;;;12.00;;
12476;SDS011;6303;51.504;6.300;2022-12-16T07:23:17;15.38;;;11.77;;
12476;SDS011;6303;51.504;6.300;2022-12-16T07:26:01;13.40;;;10.50;;
12476;SDS011;6303;51.504;6.300;2022-12-16T07:28:45;19.90;;;11.57;;
12476;SDS011;6303;51.504;6.300;2022-12-16T07:31:30;13.95;;;10.60;;
12476;SDS011;6303;51.504;6.300;2022-12-16T07:34:14;15.93;;;10.77;;
12476;SDS011;6303;51.504;6.300;2022-12-16T07:36:59;13.27;;;10.25;;
12476;SDS011;6303;51.504;6.300;2022-12-16T07:39:44;15.57;;;10.25;;
12476;SDS011;6303;51.504;6.300;2022-12-16T07:42:29;16.38;;;10.55;;
12476;SDS011;6303;51.504;6.300;2022-12-16T07:45:13;14.93;;;10.88;;
12476;SDS011;6303;51.504;6.300;2022-12-16T07:47:58;13.75;;;9.82;;
12476;SDS011;6303;51.504;6.300;2022-12-16T07:50:43;12.40;;;9.48;;
12476;SDS011;6303;51.504;6.300;2022-12-16T07:53:28;14.25;;;9.88;;
12476;SDS011;6303;51.504;6.300;2022-12-16T07:56:13;14.93;;;10.10;;
12476;SDS011;6303;51.504;6.300;2022-12-16T07:58:58;13.82;;;9.75;;
12476;SDS011;6303;51.504;6.300;2022-12-16T08:01:42;12.02;;;9.30;;
12476;SDS011;6303;51.504;6.300;2022-12-16T08:04:26;12.18;;;10.00;;
12476;SDS011;6303;51.504;6.300;2022-12-16T08:07:16;11.95;;;9.20;;
12476;SDS011;6303;51.504;6.300;2022-12-16T08:10:01;10.95;;;9.68;;
12476;SDS011;6303;51.504;6.300;2022-12-16T08:12:47;11.35;;;9.50;;
12476;SDS011;6303;51.504;6.300;2022-12-16T08:15:31;10.93;;;9.70;;
12476;SDS011;6303;51.504;6.300;2022-12-16T08:18:16;12.27;;;9.15;;
12476;SDS011;6303;51.504;6.300;2022-12-16T08:21:01;11.65;;;9.55;;
12476;SDS011;6303;51.504;6.300;2022-12-16T08:23:46;11.13;;;8.77;;
12476;SDS011;6303;51.504;6.300;2022-12-16T08:26:30;12.65;;;9.02;;
12476;SDS011;6303;51.504;6.300;2022-12-16T08:29:16;12.77;;;9.18;;
12476;SDS011;6303;51.504;6.300;2022-12-16T08:32:00;9.98;;;8.80;;
12476;SDS011;6303;51.504;6.300;2022-12-16T08:34:45;10.63;;;9.07;;
12476;SDS011;6303;51.504;6.300;2022-12-16T08:37:30;11.40;;;8.80;;
12476;SDS011;6303;51.504;6.300;2022-12-16T08:40:14;9.45;;;8.48;;
12476;SDS011;6303;51.504;6.300;2022-12-16T08:42:59;13.73;;;10.13;;
12476;SDS011;6303;51.504;6.300;2022-12-16T08:45:44;13.32;;;9.25;;
12476;SDS011;6303;51.504;6.300;2022-12-16T08:48:37;10.52;;;9.07;;
12476;SDS011;6303;51.504;6.300;2022-12-16T08:51:22;10.05;;;8.85;;
12476;SDS011;6303;51.504;6.300;2022-12-16T08:54:06;11.68;;;9.10;;
12476;SDS011;6303;51.504;6.300;2022-12-16T08:56:51;11.38;;;9.38;;
12476;SDS011;6303;51.504;6.300;2022-12-16T08:59:36;10.85;;;9.38;;
12476;SDS011;6303;51.504;6.300;2022-12-16T09:02:22;10.52;;;9.20;;
12476;SDS011;6303;51.504;6.300;2022-12-16T09:05:06;10.52;;;8.13;;
12476;SDS011;6303;51.504;6.300;2022-12-16T09:07:57;10.30;;;9.20;;
12476;SDS011;6303;51.504;6.300;2022-12-16T09:10:42;10.75;;;8.93;;
12476;SDS011;6303;51.504;6.300;2022-12-16T09:13:26;10.43;;;9.35;;
12476;SDS011;6303;51.504;6.300;2022-12-16T09:16:11;9.82;;;8.80;;
12476;SDS011;6303;51.504;6.300;2022-12-16T09:18:57;10.30;;;8.93;;
12476;SDS011;6303;51.504;6.300;2022-12-16T09:21:41;10.63;;;9.10;;
12476;SDS011;6303;51.504;6.300;2022-12-16T09:24:26;10.25;;;9.15;;
12476;SDS011;6303;51.504;6.300;2022-12-16T09:27:10;10.50;;;9.15;;
12476;SDS011;6303;51.504;6.300;2022-12-16T09:29:55;10.77;;;9.35;;
12476;SDS011;6303;51.504;6.300;2022-12-16T09:32:40;10.55;;;9.02;;
12476;SDS011;6303;51.504;6.300;2022-12-16T09:35:26;10.27;;;8.57;;
12476;SDS011;6303;51.504;6.300;2022-12-16T09:38:10;9.68;;;8.68;;
12476;SDS011;6303;51.504;6.300;2022-12-16T09:40:55;10.50;;;8.68;;
12476;SDS011;6303;51.504;6.300;2022-12-16T09:43:43;9.45;;;8.45;;
12476;SDS011;6303;51.504;6.300;2022-12-16T09:46:39;12.35;;;8.85;;
12476;SDS011;6303;51.504;6.300;2022-12-16T09:49:36;12.02;;;9.63;;
12476;SDS011;6303;51.504;6.300;2022-12-16T09:52:29;9.90;;;8.90;;
12476;SDS011;6303;51.504;6.300;2022-12-16T09:55:21;10.07;;;8.95;;
12476;SDS011;6303;51.504;6.300;2022-12-16T09:58:09;10.93;;;9.30;;
12476;SDS011;6303;51.504;6.300;2022-12-16T10:00:55;11.18;;;9.23;;
12476;SDS011;6303;51.504;6.300;2022-12-16T10:03:41;11.60;;;9.13;;
12476;SDS011;6303;51.504;6.300;2022-12-16T10:06:36;9.77;;;8.77;;
12476;SDS011;6303;51.504;6.300;2022-12-16T10:09:27;10.50;;;9.23;;
12476;SDS011;6303;51.504;6.300;2022-12-16T10:12:17;11.63;;;9.25;;
12476;SDS011;6303;51.504;6.300;2022-12-16T10:15:12;11.77;;;8.93;;
12476;SDS011;6303;51.504;6.300;2022-12-16T10:18:04;10.52;;;8.82;;
12476;SDS011;6303;51.504;6.300;2022-12-16T10:21:01;12.05;;;8.85;;
12476;SDS011;6303;51.504;6.300;2022-12-16T10:23:48;10.98;;;9.23;;
12476;SDS011;6303;51.504;6.300;2022-12-16T10:26:42;10.50;;;8.50;;
12476;SDS011;6303;51.504;6.300;2022-12-16T10:29:35;12.13;;;9.48;;
12476;SDS011;6303;51.504;6.300;2022-12-16T10:32:24;11.20;;;9.25;;
12476;SDS011;6303;51.504;6.300;2022-12-16T10:35:16;13.63;;;10.27;;
12476;SDS011;6303;51.504;6.300;2022-12-16T10:38:04;11.90;;;9.73;;
12476;SDS011;6303;51.504;6.300;2022-12-16T10:40:54;11.88;;;9.85;;
12476;SDS011;6303;51.504;6.300;2022-12-16T10:43:41;11.10;;;9.52;;
12476;SDS011;6303;51.504;6.300;2022-12-16T10:46:31;12.07;;;9.98;;
12476;SDS011;6303;51.504;6.300;2022-12-16T10:49:17;11.63;;;9.77;;
12476;SDS011;6303;51.504;6.300;2022-12-16T10:52:02;10.73;;;9.57;;
12476;SDS011;6303;51.504;6.300;2022-12-16T10:54:49;11.32;;;9.77;;
12476;SDS011;6303;51.504;6.300;2022-12-16T10:57:44;10.07;;;9.07;;
12476;SDS011;6303;51.504;6.300;2022-12-16T11:00:40;11.93;;;9.15;;
12476;SDS011;6303;51.504;6.300;2022-12-16T11:03:28;10.23;;;8.85;;
12476;SDS011;6303;51.504;6.300;2022-12-16T11:06:15;9.40;;;8.32;;
12476;SDS011;6303;51.504;6.300;2022-12-16T11:09:17;11.25;;;8.65;;
12476;SDS011;6303;51.504;6.300;2022-12-16T11:12:16;10.20;;;8.18;;
12476;SDS011;6303;51.504;6.300;2022-12-16T11:15:16;10.13;;;8.70;;
12476;SDS011;6303;51.504;6.300;2022-12-16T11:18:09;10.13;;;8.05;;
12476;SDS011;6303;51.504;6.300;2022-12-16T11:21:07;10.52;;;8.50;;
12476;SDS011;6303;51.504;6.300;2022-12-16T11:24:05;9.68;;;8.68;;
12476;SDS011;6303;51.504;6.300;2022-12-16T11:26:55;10.25;;;7.82;;
12476;SDS011;6303;51.504;6.300;2022-12-16T11:29:51;8.68;;;7.82;;
12476;SDS011;6303;51.504;6.300;2022-12-16T11:32:37;8.98;;;7.97;;
12476;SDS011;6303;51.504;6.300;2022-12-16T11:35:27;9.10;;;8.00;;
12476;SDS011;6303;51.504;6.300;2022-12-16T11:38:21;12.10;;;8.20;;
12476;SDS011;6303;51.504;6.300;2022-12-16T11:41:11;10.27;;;8.82;;
12476;SDS011;6303;51.504;6.300;2022-12-16T11:44:04;9.75;;;8.75;;
12476;SDS011;6303;51.504;6.300;2022-12-16T11:46:52;11.35;;;8.77;;
12476;SDS011;6303;51.504;6.300;2022-12-16T11:49:37;11.40;;;9.27;;
12476;SDS011;6303;51.504;6.300;2022-12-16T11:52:24;12.18;;;8.73;;
12476;SDS011;6303;51.504;6.300;2022-12-16T11:55:13;12.55;;;9.38;;
12476;SDS011;6303;51.504;6.300;2022-12-16T11:58:03;12.30;;;9.60;;
12476;SDS011;6303;51.504;6.300;2022-12-16T12:01:02;11.30;;;9.05;;
12476;SDS011;6303;51.504;6.300;2022-12-16T12:03:52;11.18;;;9.30;;
12476;SDS011;6303;51.504;6.300;2022-12-16T12:06:40;13.13;;;10.05;;
12476;SDS011;6303;51.504;6.300;2022-12-16T12:09:46;13.82;;;10.13;;
12476;SDS011;6303;51.504;6.300;2022-12-16T12:12:38;13.23;;;9.82;;
12476;SDS011;6303;51.504;6.300;2022-12-16T12:15:31;13.02;;;9.73;;
12476;SDS011;6303;51.504;6.300;2022-12-16T12:18:21;11.02;;;9.73;;
12476;SDS011;6303;51.504;6.300;2022-12-16T12:21:13;11.93;;;10.02;;
12476;SDS011;6303;51.504;6.300;2022-12-16T12:24:07;12.30;;;9.52;;
12476;SDS011;6303;51.504;6.300;2022-12-16T12:27:07;13.70;;;10.23;;
12476;SDS011;6303;51.504;6.300;2022-12-16T12:29:58;11.30;;;9.60;;
12476;SDS011;6303;51.504;6.300;2022-12-16T12:32:49;12.60;;;10.05;;
12476;SDS011;6303;51.504;6.300;2022-12-16T12:35:45;10.73;;;9.60;;
12476;SDS011;6303;51.504;6.300;2022-12-16T12:38:39;12.88;;;9.95;;
12476;SDS011;6303;51.504;6.300;2022-12-16T12:41:39;10.77;;;9.50;;
12476;SDS011;6303;51.504;6.300;2022-12-16T12:44:37;13.57;;;9.30;;
12476;SDS011;6303;51.504;6.300;2022-12-16T12:47:33;13.43;;;9.50;;
12476;SDS011;6303;51.504;6.300;2022-12-16T12:50:27;15.65;;;9.32;;
12476;SDS011;6303;51.504;6.300;2022-12-16T12:53:19;11.88;;;9.50;;
12476;SDS011;6303;51.504;6.300;2022-12-16T12:56:14;13.93;;;9.82;;
12476;SDS011;6303;51.504;6.300;2022-12-16T12:59:11;11.27;;;9.20;;
12476;SDS011;6303;51.504;6.300;2022-12-16T13:02:01;12.35;;;9.30;;
12476;SDS011;6303;51.504;6.300;2022-12-16T13:04:48;12.45;;;9.55;;
12476;SDS011;6303;51.504;6.300;2022-12-16T13:07:34;11.23;;;9.45;;
12476;SDS011;6303;51.504;6.300;2022-12-16T13:10:29;12.18;;;10.00;;
12476;SDS011;6303;51.504;6.300;2022-12-16T13:13:29;10.40;;;9.30;;
12476;SDS011;6303;51.504;6.300;2022-12-16T13:19:53;13.20;;;9.80;;
12476;SDS011;6303;51.504;6.300;2022-12-16T13:22:40;9.57;;;8.45;;
12476;SDS011;6303;51.504;6.300;2022-12-16T13:25:35;12.90;;;9.02;;
12476;SDS011;6303;51.504;6.300;2022-12-16T13:28:23;12.85;;;9.60;;
12476;SDS011;6303;51.504;6.300;2022-12-16T13:31:11;11.73;;;9.10;;
12476;SDS011;6303;51.504;6.300;2022-12-16T13:33:59;10.50;;;8.90;;
12476;SDS011;6303;51.504;6.300;2022-12-16T13:36:53;11.75;;;9.05;;
12476;SDS011;6303;51.504;6.300;2022-12-16T13:39:39;12.23;;;8.57;;
12476;SDS011;6303;51.504;6.300;2022-12-16T13:45:34;14.15;;;8.75;;
12476;SDS011;6303;51.504;6.300;2022-12-16T13:58:00;9.30;;;8.05;;
12476;SDS011;6303;51.504;6.300;2022-12-16T14:00:53;10.30;;;8.18;;
12476;SDS011;6303;51.504;6.300;2022-12-16T14:03:42;10.52;;;8.85;;
12476;SDS011;6303;51.504;6.300;2022-12-16T14:06:29;10.43;;;8.55;;
12476;SDS011;6303;51.504;6.300;2022-12-16T14:09:23;9.65;;;8.40;;
12476;SDS011;6303;51.504;6.300;2022-12-16T14:12:15;10.52;;;8.55;;
12476;SDS011;6303;51.504;6.300;2022-12-16T14:15:18;8.93;;;8.00;;
12476;SDS011;6303;51.504;6.300;2022-12-16T14:18:10;11.30;;;8.30;;
12476;SDS011;6303;51.504;6.300;2022-12-16T14:21:21;11.23;;;8.10;;
12476;SDS011;6303;51.504;6.300;2022-12-16T14:24:20;8.80;;;7.82;;
12476;SDS011;6303;51.504;6.300;2022-12-16T14:27:11;9.40;;;7.65;;
12476;SDS011;6303;51.504;6.300;2022-12-16T15:48:10;8.23;;;6.85;;
12476;SDS011;6303;51.504;6.300;2022-12-16T15:50:56;7.20;;;6.38;;
12476;SDS011;6303;51.504;6.300;2022-12-16T15:53:41;8.00;;;6.60;;
12476;SDS011;6303;51.504;6.300;2022-12-16T15:56:26;6.93;;;6.22;;
12476;SDS011;6303;51.504;6.300;2022-12-16T15:59:21;7.63;;;6.63;;
12476;SDS011;6303;51.504;6.300;2022-12-16T16:02:12;8.10;;;6.72;;
12476;SDS011;6303;51.504;6.300;2022-12-16T17:09:54;10.73;;;7.25;;
12476;SDS011;6303;51.504;6.300;2022-12-16T17:12:39;10.75;;;7.65;;
12476;SDS011;6303;51.504;6.300;2022-12-16T17:15:28;9.57;;;7.35;;
12476;SDS011;6303;51.504;6.300;2022-12-16T17:18:15;10.30;;;7.28;;
12476;SDS011;6303;51.504;6.300;2022-12-16T17:21:11;10.63;;;7.30;;
12476;SDS011;6303;51.504;6.300;2022-12-16T17:23:56;11.55;;;7.35;;
12476;SDS011;6303;51.504;6.300;2022-12-16T17:29:41;11.48;;;7.07;;
12476;SDS011;6303;51.504;6.300;2022-12-16T17:32:26;10.52;;;7.70;;
12476;SDS011;6303;51.504;6.300;2022-12-16T17:35:10;8.95;;;6.82;;
12476;SDS011;6303;51.504;6.300;2022-12-16T17:37:55;12.73;;;6.78;;
12476;SDS011;6303;51.504;6.300;2022-12-16T17:40:40;10.20;;;6.80;;
12476;SDS011;6303;51.504;6.300;2022-12-16T20:29:56;6.68;;;5.90;;
12476;SDS011;6303;51.504;6.300;2022-12-16T20:32:41;6.65;;;5.95;;
12476;SDS011;6303;51.504;6.300;2022-12-16T20:35:26;7.03;;;5.97;;
12476;SDS011;6303;51.504;6.300;2022-12-16T20:38:10;6.60;;;6.00;;
12476;SDS011;6303;51.504;6.300;2022-12-16T20:40:55;6.03;;;5.47;;
12476;SDS011;6303;51.504;6.300;2022-12-16T20:43:45;6.07;;;5.47;;
12476;SDS011;6303;51.504;6.300;2022-12-16T20:46:32;7.18;;;6.25;;
12476;SDS011;6303;51.504;6.300;2022-12-16T20:49:16;6.90;;;5.72;;
12476;SDS011;6303;51.504;6.300;2022-12-16T20:52:01;6.43;;;5.82;;
12476;SDS011;6303;51.504;6.300;2022-12-16T20:54:45;6.43;;;5.45;;
12476;SDS011;6303;51.504;6.300;2022-12-16T20:57:30;6.25;;;5.50;;
12476;SDS011;6303;51.504;6.300;2022-12-16T21:00:14;6.22;;;5.63;;
12476;SDS011;6303;51.504;6.300;2022-12-16T21:03:01;5.80;;;5.25;;
12476;SDS011;6303;51.504;6.300;2022-12-16T21:05:49;7.00;;;5.55;;
12476;SDS011;6303;51.504;6.300;2022-12-16T21:08:34;6.28;;;5.30;;
12476;SDS011;6303;51.504;6.300;2022-12-16T21:11:18;5.68;;;5.18;;
12476;SDS011;6303;51.504;6.300;2022-12-16T21:14:03;6.47;;;5.50;;
12476;SDS011;6303;51.504;6.300;2022-12-16T21:17:02;6.25;;;5.45;;
12476;SDS011;6303;51.504;6.300;2022-12-16T21:19:48;6.18;;;5.57;;
12476;SDS011;6303;51.504;6.300;2022-12-16T21:22:32;6.07;;;5.47;;
12476;SDS011;6303;51.504;6.300;2022-12-16T21:25:17;5.60;;;5.10;;
12476;SDS011;6303;51.504;6.300;2022-12-16T21:28:01;7.05;;;5.50;;
12476;SDS011;6303;51.504;6.300;2022-12-16T21:30:46;5.97;;;5.30;;
12476;SDS011;6303;51.504;6.300;2022-12-16T21:33:31;6.38;;;5.75;;
12476;SDS011;6303;51.504;6.300;2022-12-16T21:36:17;5.95;;;5.35;;
12476;SDS011;6303;51.504;6.300;2022-12-16T21:39:01;5.95;;;5.38;;
12476;SDS011;6303;51.504;6.300;2022-12-16T21:41:46;6.40;;;5.78;;
12476;SDS011;6303;51.504;6.300;2022-12-16T21:44:30;5.82;;;5.32;;
12476;SDS011;6303;51.504;6.300;2022-12-16T21:47:15;5.93;;;5.30;;
12476;SDS011;6303;51.504;6.300;2022-12-16T21:49:59;6.22;;;5.63;;
12476;SDS011;6303;51.504;6.300;2022-12-16T21:52:47;5.97;;;5.38;;
12476;SDS011;6303;51.504;6.300;2022-12-16T21:55:36;5.43;;;4.93;;
12476;SDS011;6303;51.504;6.300;2022-12-16T21:58:29;7.45;;;5.80;;